createdAt,value
2018-03-16T00:00:07.513Z,1002.17
2018-03-16T00:00:48.066Z,1002.19
2018-03-16T00:01:28.596Z,1002.16
2018-03-16T00:02:09.173Z,1002.21
2018-03-16T00:02:49.733Z,1002.25
2018-03-16T00:03:30.271Z,1002.24
2018-03-16T00:04:10.811Z,1002.27
2018-03-16T00:04:51.351Z,1002.17
2018-03-16T00:05:31.929Z,1002.19
2018-03-16T00:06:12.536Z,1002.17
2018-03-16T00:06:53.086Z,1002.17
2018-03-16T00:07:33.596Z,1002.24
2018-03-16T00:08:14.244Z,1002.22
2018-03-16T00:08:54.791Z,1002.29
2018-03-16T00:09:35.449Z,1002.2
2018-03-16T00:10:15.959Z,1002.21
2018-03-16T00:10:56.547Z,1002.23
2018-03-16T00:11:37.108Z,1002.22
2018-03-16T00:12:17.646Z,1002.26
2018-03-16T00:12:58.194Z,1002.33
2018-03-16T00:13:38.788Z,1002.27
2018-03-16T00:14:19.360Z,1002.27
2018-03-16T00:14:59.886Z,1002.24
2018-03-16T00:15:40.431Z,1002.24
2018-03-16T00:16:21.027Z,1002.34
2018-03-16T00:17:01.582Z,1002.3
2018-03-16T00:17:42.176Z,1002.29
2018-03-16T00:18:22.712Z,1002.21
2018-03-16T00:19:03.317Z,1002.26
2018-03-16T00:19:43.985Z,1002.25
2018-03-16T00:20:24.528Z,1002.3
2018-03-16T00:21:05.093Z,1002.23
2018-03-16T00:21:45.645Z,1002.17
2018-03-16T00:22:26.220Z,1002.25
2018-03-16T00:23:06.818Z,1002.23
2018-03-16T00:23:47.352Z,1002.21
2018-03-16T00:24:27.908Z,1002.3
2018-03-16T00:25:08.469Z,1002.27
2018-03-16T00:25:49.041Z,1002.26
2018-03-16T00:26:29.603Z,1002.2
2018-03-16T00:27:10.182Z,1002.24
2018-03-16T00:27:50.735Z,1002.25
2018-03-16T00:28:31.335Z,1002.3
2018-03-16T00:29:11.895Z,1002.28
2018-03-16T00:29:52.469Z,1002.25
2018-03-16T00:30:33.002Z,1002.19
2018-03-16T00:31:13.606Z,1002.29
2018-03-16T00:31:54.144Z,1002.24
2018-03-16T00:32:34.719Z,1002.27
2018-03-16T00:33:15.288Z,1002.2
2018-03-16T00:33:55.920Z,1002.19
2018-03-16T00:34:36.484Z,1002.2
2018-03-16T00:35:17.035Z,1002.11
2018-03-16T00:35:57.588Z,1002.12
2018-03-16T00:36:38.142Z,1002.17
2018-03-16T00:37:18.736Z,1002.14
2018-03-16T00:37:59.271Z,1002.08
2018-03-16T00:38:39.886Z,1002.16
2018-03-16T00:39:20.440Z,1002.04
2018-03-16T00:40:00.995Z,1002.07
2018-03-16T00:40:41.563Z,1002.13
2018-03-16T00:41:22.107Z,1002.11
2018-03-16T00:42:02.694Z,1002.12
2018-03-16T00:42:43.257Z,1002.13
2018-03-16T00:43:23.805Z,1002.04
2018-03-16T00:44:04.339Z,1002.06
2018-03-16T00:44:44.905Z,1002.07
2018-03-16T00:45:25.438Z,1001.94
2018-03-16T00:46:06.046Z,1002.02
2018-03-16T00:46:46.618Z,1001.97
2018-03-16T00:47:27.155Z,1002.01
2018-03-16T00:48:07.722Z,1001.92
2018-03-16T00:48:48.273Z,1001.92
2018-03-16T00:49:28.840Z,1002.01
2018-03-16T00:50:09.396Z,1001.94
2018-03-16T00:50:49.942Z,1001.74
2018-03-16T00:51:30.604Z,1001.76
2018-03-16T00:52:11.097Z,1001.78
2018-03-16T00:52:51.672Z,1001.86
2018-03-16T00:53:32.289Z,1001.87
2018-03-16T00:54:12.886Z,1001.8
2018-03-16T00:54:53.413Z,1001.85
2018-03-16T00:55:33.999Z,1001.82
2018-03-16T00:56:14.539Z,1001.85
2018-03-16T00:56:55.101Z,1001.79
2018-03-16T00:57:35.643Z,1001.74
2018-03-16T00:58:16.190Z,1001.83
2018-03-16T00:58:56.752Z,1001.91
2018-03-16T00:59:37.295Z,1001.91
2018-03-16T01:00:17.876Z,1001.91
2018-03-16T01:00:58.421Z,1001.87
2018-03-16T01:01:38.968Z,1001.86
2018-03-16T01:02:19.524Z,1001.92
2018-03-16T01:03:00.275Z,1002
2018-03-16T01:03:40.811Z,1001.92
2018-03-16T01:04:21.366Z,1001.88
2018-03-16T01:05:01.944Z,1001.88
2018-03-16T01:05:42.550Z,1001.88
2018-03-16T01:06:23.103Z,1001.96
2018-03-16T01:07:03.839Z,1001.85
2018-03-16T01:07:44.401Z,1001.82
2018-03-16T01:08:24.982Z,1001.85
2018-03-16T01:09:05.525Z,1001.84
2018-03-16T01:09:46.088Z,1001.84
2018-03-16T01:10:26.626Z,1001.8
2018-03-16T01:11:07.185Z,1001.84
2018-03-16T01:11:47.761Z,1001.8
2018-03-16T01:12:28.316Z,1001.85
2018-03-16T01:13:08.896Z,1001.85
2018-03-16T01:13:49.458Z,1001.78
2018-03-16T01:14:30.058Z,1001.85
2018-03-16T01:15:10.571Z,1001.77
2018-03-16T01:15:51.111Z,1001.81
2018-03-16T01:16:31.680Z,1001.79
2018-03-16T01:17:12.261Z,1001.77
2018-03-16T01:17:52.823Z,1001.72
2018-03-16T01:18:33.382Z,1001.77
2018-03-16T01:19:13.939Z,1001.79
2018-03-16T01:19:54.497Z,1001.65
2018-03-16T01:20:35.051Z,1001.68
2018-03-16T01:21:15.635Z,1001.71
2018-03-16T01:21:56.195Z,1001.7
2018-03-16T01:22:36.729Z,1001.74
2018-03-16T01:23:17.276Z,1001.73
2018-03-16T01:23:57.856Z,1001.76
2018-03-16T01:24:38.409Z,1001.69
2018-03-16T01:25:18.961Z,1001.68
2018-03-16T01:25:59.592Z,1001.73
2018-03-16T01:26:40.123Z,1001.7
2018-03-16T01:27:20.657Z,1001.76
2018-03-16T01:28:01.205Z,1001.74
2018-03-16T01:28:41.764Z,1001.75
2018-03-16T01:29:22.326Z,1001.74
2018-03-16T01:30:02.874Z,1001.71
2018-03-16T01:30:43.454Z,1001.8
2018-03-16T01:31:23.981Z,1001.88
2018-03-16T01:32:04.576Z,1001.73
2018-03-16T01:32:45.096Z,1001.71
2018-03-16T01:33:25.643Z,1001.79
2018-03-16T01:34:06.222Z,1001.84
2018-03-16T01:34:46.738Z,1001.85
2018-03-16T01:35:27.289Z,1001.87
2018-03-16T01:36:07.853Z,1001.8
2018-03-16T01:36:48.416Z,1001.91
2018-03-16T01:37:28.978Z,1001.92
2018-03-16T01:38:09.526Z,1001.88
2018-03-16T01:38:50.068Z,1001.87
2018-03-16T01:39:30.623Z,1001.81
2018-03-16T01:40:11.145Z,1001.84
2018-03-16T01:40:51.732Z,1001.85
2018-03-16T01:41:32.246Z,1001.85
2018-03-16T01:42:12.800Z,1001.83
2018-03-16T01:42:53.346Z,1001.88
2018-03-16T01:43:33.896Z,1001.91
2018-03-16T01:44:14.454Z,1001.86
2018-03-16T01:44:55.156Z,1001.92
2018-03-16T01:45:35.747Z,1001.93
2018-03-16T01:46:16.312Z,1001.88
2018-03-16T01:46:56.849Z,1001.91
2018-03-16T01:47:37.403Z,1001.9
2018-03-16T01:48:17.968Z,1001.91
2018-03-16T01:48:58.517Z,1001.89
2018-03-16T01:49:39.123Z,1001.88
2018-03-16T01:50:19.683Z,1001.92
2018-03-16T01:51:00.261Z,1001.91
2018-03-16T01:51:40.832Z,1001.85
2018-03-16T01:52:21.393Z,1001.9
2018-03-16T01:53:01.958Z,1001.94
2018-03-16T01:53:42.529Z,1001.87
2018-03-16T01:54:23.083Z,1001.88
2018-03-16T01:55:03.627Z,1001.83
2018-03-16T01:55:44.200Z,1001.89
2018-03-16T01:56:24.802Z,1001.86
2018-03-16T01:57:05.341Z,1001.84
2018-03-16T01:57:45.937Z,1001.84
2018-03-16T01:58:26.502Z,1001.83
2018-03-16T01:59:07.094Z,1001.86
2018-03-16T01:59:47.635Z,1001.84
2018-03-16T02:00:28.258Z,1001.79
2018-03-16T02:01:08.814Z,1001.79
2018-03-16T02:01:49.375Z,1001.83
2018-03-16T02:02:29.934Z,1001.9
2018-03-16T02:03:10.480Z,1001.91
2018-03-16T02:03:51.066Z,1001.89
2018-03-16T02:04:31.645Z,1001.95
2018-03-16T02:05:12.193Z,1001.92
2018-03-16T02:05:52.770Z,1001.88
2018-03-16T02:06:33.330Z,1001.98
2018-03-16T02:07:13.884Z,1002.01
2018-03-16T02:07:54.474Z,1002.05
2018-03-16T02:08:35.120Z,1001.99
2018-03-16T02:09:15.687Z,1001.93
2018-03-16T02:09:56.253Z,1002.06
2018-03-16T02:10:36.806Z,1002.01
2018-03-16T02:11:17.391Z,1002.03
2018-03-16T02:11:57.966Z,1002.09
2018-03-16T02:12:38.516Z,1001.99
2018-03-16T02:13:19.081Z,1002.06
2018-03-16T02:13:59.632Z,1002.11
2018-03-16T02:14:40.196Z,1002.1
2018-03-16T02:15:20.759Z,1002.14
2018-03-16T02:16:01.326Z,1002.09
2018-03-16T02:16:41.921Z,1002.16
2018-03-16T02:17:22.481Z,1002.07
2018-03-16T02:18:03.040Z,1002.1
2018-03-16T02:18:43.629Z,1002.08
2018-03-16T02:19:24.202Z,1002.22
2018-03-16T02:20:04.761Z,1002.08
2018-03-16T02:20:45.307Z,1002.13
2018-03-16T02:21:25.858Z,1002.18
2018-03-16T02:22:06.411Z,1002.07
2018-03-16T02:22:46.965Z,1002.11
2018-03-16T02:23:27.537Z,1002.09
2018-03-16T02:24:08.116Z,1002.11
2018-03-16T02:24:48.667Z,1001.98
2018-03-16T02:25:29.259Z,1002.03
2018-03-16T02:26:09.841Z,1002.09
2018-03-16T02:26:50.397Z,1002.02
2018-03-16T02:27:30.978Z,1002.04
2018-03-16T02:28:11.523Z,1001.95
2018-03-16T02:28:52.089Z,1001.95
2018-03-16T02:29:32.660Z,1001.93
2018-03-16T02:30:13.210Z,1001.99
2018-03-16T02:30:53.783Z,1001.93
2018-03-16T02:31:34.336Z,1001.92
2018-03-16T02:32:14.897Z,1001.93
2018-03-16T02:32:55.461Z,1001.94
2018-03-16T02:33:36.012Z,1002
2018-03-16T02:34:16.564Z,1001.94
2018-03-16T02:34:57.126Z,1001.95
2018-03-16T02:35:37.684Z,1001.98
2018-03-16T02:36:18.248Z,1001.97
2018-03-16T02:36:58.868Z,1001.9
2018-03-16T02:37:39.373Z,1002
2018-03-16T02:38:19.961Z,1001.97
2018-03-16T02:39:00.531Z,1001.98
2018-03-16T02:39:41.078Z,1001.94
2018-03-16T02:40:21.635Z,1001.89
2018-03-16T02:41:02.195Z,1001.92
2018-03-16T02:41:42.756Z,1001.97
2018-03-16T02:42:23.312Z,1001.88
2018-03-16T02:43:03.876Z,1001.89
2018-03-16T02:43:44.441Z,1001.9
2018-03-16T02:44:24.993Z,1001.87
2018-03-16T02:45:05.547Z,1001.88
2018-03-16T02:45:46.093Z,1001.91
2018-03-16T02:46:26.665Z,1001.87
2018-03-16T02:47:07.220Z,1001.81
2018-03-16T02:47:47.789Z,1001.9
2018-03-16T02:48:28.340Z,1001.88
2018-03-16T02:49:08.890Z,1001.82
2018-03-16T02:49:49.447Z,1001.84
2018-03-16T02:50:30.008Z,1001.81
2018-03-16T02:51:10.563Z,1001.85
2018-03-16T02:51:51.149Z,1001.8
2018-03-16T02:52:31.701Z,1001.9
2018-03-16T02:53:12.257Z,1001.9
2018-03-16T02:53:52.810Z,1001.84
2018-03-16T02:54:33.362Z,1001.83
2018-03-16T02:55:13.910Z,1001.82
2018-03-16T02:55:54.468Z,1001.82
2018-03-16T02:56:35.026Z,1001.82
2018-03-16T02:57:15.602Z,1001.81
2018-03-16T02:57:56.169Z,1001.82
2018-03-16T02:58:36.740Z,1001.7
2018-03-16T02:59:17.311Z,1001.79
2018-03-16T02:59:57.871Z,1001.79
2018-03-16T03:00:38.424Z,1001.72
2018-03-16T03:01:18.974Z,1001.77
2018-03-16T03:01:59.561Z,1001.84
2018-03-16T03:02:40.100Z,1001.79
2018-03-16T03:03:20.674Z,1001.79
2018-03-16T03:04:01.233Z,1001.82
2018-03-16T03:04:41.792Z,1001.76
2018-03-16T03:05:22.343Z,1001.77
2018-03-16T03:06:02.898Z,1001.8
2018-03-16T03:06:43.488Z,1001.77
2018-03-16T03:07:24.041Z,1001.85
2018-03-16T03:08:04.583Z,1001.8
2018-03-16T03:08:45.184Z,1001.79
2018-03-16T03:09:25.687Z,1001.75
2018-03-16T03:10:06.266Z,1001.87
2018-03-16T03:10:46.834Z,1001.84
2018-03-16T03:11:27.383Z,1001.88
2018-03-16T03:12:07.951Z,1001.85
2018-03-16T03:12:48.525Z,1001.86
2018-03-16T03:13:29.250Z,1001.8
2018-03-16T03:14:09.808Z,1001.79
2018-03-16T03:14:50.372Z,1001.89
2018-03-16T03:15:30.930Z,1001.94
2018-03-16T03:16:11.482Z,1001.99
2018-03-16T03:16:52.033Z,1001.96
2018-03-16T03:17:32.595Z,1001.98
2018-03-16T03:18:13.149Z,1002.02
2018-03-16T03:18:53.712Z,1001.99
2018-03-16T03:19:34.314Z,1002.02
2018-03-16T03:20:14.882Z,1002.01
2018-03-16T03:20:55.440Z,1002.04
2018-03-16T03:21:36.003Z,1002
2018-03-16T03:22:16.556Z,1002.06
2018-03-16T03:22:57.129Z,1002.04
2018-03-16T03:23:37.702Z,1002.01
2018-03-16T03:24:18.253Z,1002.01
2018-03-16T03:24:58.811Z,1002.06
2018-03-16T03:25:39.363Z,1002.06
2018-03-16T03:26:19.926Z,1002.05
2018-03-16T03:27:00.478Z,1002.16
2018-03-16T03:27:41.041Z,1002.14
2018-03-16T03:28:21.592Z,1002.14
2018-03-16T03:29:02.149Z,1002.15
2018-03-16T03:29:42.707Z,1002.24
2018-03-16T03:30:23.258Z,1002.18
2018-03-16T03:31:03.820Z,1002.22
2018-03-16T03:31:44.403Z,1002.16
2018-03-16T03:32:24.962Z,1002.21
2018-03-16T03:33:05.518Z,1002.16
2018-03-16T03:33:46.082Z,1002.17
2018-03-16T03:34:26.648Z,1002.14
2018-03-16T03:35:07.200Z,1002.14
2018-03-16T03:35:47.780Z,1002.15
2018-03-16T03:36:28.360Z,1002.12
2018-03-16T03:37:08.923Z,1002.12
2018-03-16T03:37:49.501Z,1002.13
2018-03-16T03:38:30.050Z,1002.09
2018-03-16T03:39:10.617Z,1002.06
2018-03-16T03:39:51.161Z,1002.09
2018-03-16T03:40:31.725Z,1002.11
2018-03-16T03:41:12.301Z,1002.04
2018-03-16T03:41:52.855Z,1002.05
2018-03-16T03:42:33.444Z,1002.01
2018-03-16T03:43:14.004Z,1001.94
2018-03-16T03:43:54.571Z,1001.92
2018-03-16T03:44:35.130Z,1001.95
2018-03-16T03:45:15.677Z,1002.02
2018-03-16T03:45:56.248Z,1002
2018-03-16T03:46:36.804Z,1002
2018-03-16T03:47:17.370Z,1001.93
2018-03-16T03:47:57.919Z,1001.9
2018-03-16T03:48:38.471Z,1001.91
2018-03-16T03:49:19.024Z,1001.91
2018-03-16T03:49:59.587Z,1001.9
2018-03-16T03:50:40.154Z,1001.84
2018-03-16T03:51:20.726Z,1001.88
2018-03-16T03:52:01.270Z,1001.8
2018-03-16T03:52:41.818Z,1001.8
2018-03-16T03:53:22.368Z,1001.83
2018-03-16T03:54:02.937Z,1001.93
2018-03-16T03:54:43.524Z,1001.84
2018-03-16T03:55:24.036Z,1001.87
2018-03-16T03:56:04.588Z,1001.86
2018-03-16T03:56:45.154Z,1001.9
2018-03-16T03:57:25.720Z,1001.82
2018-03-16T03:58:06.306Z,1001.87
2018-03-16T03:58:46.876Z,1001.85
2018-03-16T03:59:27.437Z,1001.76
2018-03-16T04:00:08.006Z,1001.86
2018-03-16T04:00:48.550Z,1001.8
2018-03-16T04:01:29.098Z,1001.75
2018-03-16T04:02:09.667Z,1001.74
2018-03-16T04:02:50.213Z,1001.79
2018-03-16T04:03:30.787Z,1001.82
2018-03-16T04:04:11.377Z,1001.89
2018-03-16T04:04:51.951Z,1001.75
2018-03-16T04:05:32.516Z,1001.82
2018-03-16T04:06:13.074Z,1001.77
2018-03-16T04:06:53.643Z,1001.79
2018-03-16T04:07:34.185Z,1001.71
2018-03-16T04:08:14.735Z,1001.73
2018-03-16T04:08:55.298Z,1001.75
2018-03-16T04:09:35.874Z,1001.71
2018-03-16T04:10:16.456Z,1001.77
2018-03-16T04:10:57.014Z,1001.74
2018-03-16T04:11:37.572Z,1001.68
2018-03-16T04:12:18.150Z,1001.69
2018-03-16T04:12:58.702Z,1001.72
2018-03-16T04:13:39.252Z,1001.71
2018-03-16T04:14:19.803Z,1001.69
2018-03-16T04:15:00.379Z,1001.68
2018-03-16T04:15:40.932Z,1001.69
2018-03-16T04:16:21.518Z,1001.81
2018-03-16T04:17:02.055Z,1001.74
2018-03-16T04:17:42.623Z,1001.75
2018-03-16T04:18:23.185Z,1001.72
2018-03-16T04:19:03.729Z,1001.72
2018-03-16T04:19:44.292Z,1001.77
2018-03-16T04:20:24.835Z,1001.72
2018-03-16T04:21:05.391Z,1001.79
2018-03-16T04:21:45.962Z,1001.73
2018-03-16T04:22:26.525Z,1001.72
2018-03-16T04:23:07.062Z,1001.71
2018-03-16T04:23:47.615Z,1001.77
2018-03-16T04:24:28.174Z,1001.74
2018-03-16T04:25:08.743Z,1001.74
2018-03-16T04:25:49.296Z,1001.74
2018-03-16T04:26:29.845Z,1001.86
2018-03-16T04:27:10.409Z,1001.74
2018-03-16T04:27:50.976Z,1001.78
2018-03-16T04:28:31.529Z,1001.77
2018-03-16T04:29:12.099Z,1001.73
2018-03-16T04:29:52.651Z,1001.76
2018-03-16T04:30:33.209Z,1001.76
2018-03-16T04:31:13.768Z,1001.74
2018-03-16T04:31:54.341Z,1001.8
2018-03-16T04:32:34.895Z,1001.66
2018-03-16T04:33:15.444Z,1001.69
2018-03-16T04:33:56.000Z,1001.76
2018-03-16T04:34:36.554Z,1001.74
2018-03-16T04:35:17.108Z,1001.79
2018-03-16T04:35:57.651Z,1001.8
2018-03-16T04:36:38.201Z,1001.83
2018-03-16T04:37:18.771Z,1001.81
2018-03-16T04:37:59.324Z,1001.84
2018-03-16T04:38:39.880Z,1001.87
2018-03-16T04:39:20.478Z,1001.81
2018-03-16T04:40:01.048Z,1001.82
2018-03-16T04:40:41.621Z,1001.86
2018-03-16T04:41:22.196Z,1001.81
2018-03-16T04:42:02.756Z,1001.82
2018-03-16T04:42:43.321Z,1001.88
2018-03-16T04:43:23.873Z,1001.78
2018-03-16T04:44:04.438Z,1001.88
2018-03-16T04:44:45.032Z,1001.8
2018-03-16T04:45:25.583Z,1001.81
2018-03-16T04:46:06.140Z,1001.77
2018-03-16T04:46:46.691Z,1001.82
2018-03-16T04:47:27.256Z,1001.79
2018-03-16T04:48:07.852Z,1001.81
2018-03-16T04:48:48.416Z,1001.82
2018-03-16T04:49:28.971Z,1001.81
2018-03-16T04:50:09.516Z,1001.88
2018-03-16T04:50:50.075Z,1001.82
2018-03-16T04:51:30.633Z,1001.85
2018-03-16T04:52:11.201Z,1001.88
2018-03-16T04:52:51.777Z,1001.8
2018-03-16T04:53:32.336Z,1001.81
2018-03-16T04:54:12.886Z,1001.86
2018-03-16T04:54:53.439Z,1001.88
2018-03-16T04:55:33.990Z,1001.87
2018-03-16T04:56:14.542Z,1001.79
2018-03-16T04:56:55.089Z,1001.79
2018-03-16T04:57:35.781Z,1001.86
2018-03-16T04:58:16.337Z,1001.75
2018-03-16T04:58:56.900Z,1001.85
2018-03-16T04:59:37.469Z,1001.8
2018-03-16T05:00:18.024Z,1001.87
2018-03-16T05:00:58.575Z,1001.76
2018-03-16T05:01:39.161Z,1001.81
2018-03-16T05:02:19.718Z,1001.79
2018-03-16T05:03:00.292Z,1001.84
2018-03-16T05:03:40.858Z,1001.79
2018-03-16T05:04:21.422Z,1001.8
2018-03-16T05:05:01.985Z,1001.82
2018-03-16T05:05:42.550Z,1001.79
2018-03-16T05:06:23.116Z,1001.82
2018-03-16T05:07:03.683Z,1001.82
2018-03-16T05:07:44.243Z,1001.76
2018-03-16T05:08:24.795Z,1001.82
2018-03-16T05:09:05.352Z,1001.86
2018-03-16T05:09:45.938Z,1001.67
2018-03-16T05:10:26.513Z,1001.74
2018-03-16T05:11:07.078Z,1001.76
2018-03-16T05:11:47.642Z,1001.81
2018-03-16T05:12:28.198Z,1001.75
2018-03-16T05:13:08.780Z,1001.79
2018-03-16T05:13:49.345Z,1001.8
2018-03-16T05:14:29.936Z,1001.76
2018-03-16T05:15:10.496Z,1001.68
2018-03-16T05:15:51.062Z,1001.75
2018-03-16T05:16:31.665Z,1001.72
2018-03-16T05:17:12.224Z,1001.7
2018-03-16T05:17:52.776Z,1001.74
2018-03-16T05:18:33.336Z,1001.72
2018-03-16T05:19:13.883Z,1001.74
2018-03-16T05:19:54.435Z,1001.74
2018-03-16T05:20:34.977Z,1001.66
2018-03-16T05:21:15.569Z,1001.63
2018-03-16T05:21:56.126Z,1001.68
2018-03-16T05:22:36.715Z,1001.55
2018-03-16T05:23:17.295Z,1001.59
2018-03-16T05:23:57.871Z,1001.66
2018-03-16T05:24:38.420Z,1001.64
2018-03-16T05:25:18.973Z,1001.63
2018-03-16T05:25:59.559Z,1001.73
2018-03-16T05:26:40.125Z,1001.59
2018-03-16T05:27:20.685Z,1001.61
2018-03-16T05:28:01.302Z,1001.65
2018-03-16T05:28:41.822Z,1001.64
2018-03-16T05:29:22.384Z,1001.66
2018-03-16T05:30:02.954Z,1001.71
2018-03-16T05:30:43.515Z,1001.67
2018-03-16T05:31:24.084Z,1001.62
2018-03-16T05:32:04.656Z,1001.67
2018-03-16T05:32:45.224Z,1001.62
2018-03-16T05:33:25.773Z,1001.63
2018-03-16T05:34:06.343Z,1001.7
2018-03-16T05:34:46.888Z,1001.5
2018-03-16T05:35:27.447Z,1001.69
2018-03-16T05:36:07.990Z,1001.66
2018-03-16T05:36:48.554Z,1001.72
2018-03-16T05:37:29.131Z,1001.74
2018-03-16T05:38:09.699Z,1001.75
2018-03-16T05:38:50.250Z,1001.69
2018-03-16T05:39:30.812Z,1001.72
2018-03-16T05:40:11.370Z,1001.78
2018-03-16T05:40:51.932Z,1001.73
2018-03-16T05:41:32.491Z,1001.74
2018-03-16T05:42:13.044Z,1001.74
2018-03-16T05:42:53.596Z,1001.78
2018-03-16T05:43:34.143Z,1001.75
2018-03-16T05:44:14.699Z,1001.72
2018-03-16T05:44:55.261Z,1001.71
2018-03-16T05:45:35.823Z,1001.72
2018-03-16T05:46:16.399Z,1001.71
2018-03-16T05:46:56.995Z,1001.74
2018-03-16T05:47:37.562Z,1001.63
2018-03-16T05:48:18.119Z,1001.74
2018-03-16T05:48:58.660Z,1001.65
2018-03-16T05:49:39.232Z,1001.74
2018-03-16T05:50:19.824Z,1001.69
2018-03-16T05:51:00.394Z,1001.66
2018-03-16T05:51:40.959Z,1001.66
2018-03-16T05:52:21.539Z,1001.72
2018-03-16T05:53:02.403Z,1001.7
2018-03-16T05:53:42.913Z,1001.67
2018-03-16T05:54:23.793Z,1001.79
2018-03-16T05:55:04.341Z,1001.68
2018-03-16T05:55:44.930Z,1001.76
2018-03-16T05:56:25.488Z,1001.73
2018-03-16T05:57:06.031Z,1001.8
2018-03-16T05:57:46.618Z,1001.76
2018-03-16T05:58:27.353Z,1001.8
2018-03-16T05:59:07.989Z,1001.8
2018-03-16T05:59:48.558Z,1001.71
2018-03-16T06:00:29.362Z,1001.79
2018-03-16T06:01:09.958Z,1001.87
2018-03-16T06:01:50.513Z,1001.76
2018-03-16T06:02:31.071Z,1001.82
2018-03-16T06:03:11.742Z,1001.85
2018-03-16T06:03:52.298Z,1001.77
2018-03-16T06:04:32.879Z,1001.83
2018-03-16T06:05:13.440Z,1001.83
2018-03-16T06:05:53.988Z,1001.83
2018-03-16T06:06:34.547Z,1001.74
2018-03-16T06:07:15.124Z,1001.83
2018-03-16T06:07:55.706Z,1001.83
2018-03-16T06:08:36.277Z,1001.86
2018-03-16T06:09:17.079Z,1001.86
2018-03-16T06:09:57.641Z,1001.87
2018-03-16T06:10:38.246Z,1001.79
2018-03-16T06:11:28.391Z,1001.79
2018-03-16T06:12:19.477Z,1001.84
2018-03-16T06:13:00.032Z,1001.76
2018-03-16T06:13:40.585Z,1001.76
2018-03-16T06:14:21.138Z,1001.77
2018-03-16T06:15:01.884Z,1001.77
2018-03-16T06:15:42.522Z,1001.75
2018-03-16T06:16:24.121Z,1001.79
2018-03-16T06:17:04.736Z,1001.7
2018-03-16T06:17:45.284Z,1001.72
2018-03-16T06:18:25.846Z,1001.75
2018-03-16T06:19:06.458Z,1001.74
2018-03-16T06:19:47.021Z,1001.73
2018-03-16T06:20:27.588Z,1001.82
2018-03-16T06:21:08.134Z,1001.72
2018-03-16T06:21:48.693Z,1001.8
2018-03-16T06:22:29.252Z,1001.77
2018-03-16T06:23:09.799Z,1001.83
2018-03-16T06:23:50.350Z,1001.78
2018-03-16T06:24:30.903Z,1001.82
2018-03-16T06:25:11.463Z,1001.91
2018-03-16T06:25:52.043Z,1001.92
2018-03-16T06:26:32.606Z,1001.9
2018-03-16T06:27:13.167Z,1001.82
2018-03-16T06:27:53.758Z,1001.85
2018-03-16T06:28:34.302Z,1001.91
2018-03-16T06:29:14.924Z,1001.95
2018-03-16T06:29:55.501Z,1001.94
2018-03-16T06:30:36.064Z,1001.95
2018-03-16T06:31:16.658Z,1001.95
2018-03-16T06:31:57.214Z,1001.9
2018-03-16T06:32:37.850Z,1001.88
2018-03-16T06:33:18.410Z,1001.89
2018-03-16T06:33:59.084Z,1001.88
2018-03-16T06:34:39.696Z,1001.91
2018-03-16T06:35:20.222Z,1001.93
2018-03-16T06:36:00.770Z,1001.95
2018-03-16T06:36:41.382Z,1001.92
2018-03-16T06:37:21.941Z,1001.87
2018-03-16T06:38:02.502Z,1001.96
2018-03-16T06:38:43.067Z,1001.98
2018-03-16T06:39:23.697Z,1001.93
2018-03-16T06:40:04.184Z,1002.03
2018-03-16T06:40:44.877Z,1002.02
2018-03-16T06:41:25.423Z,1001.95
2018-03-16T06:42:05.974Z,1001.93
2018-03-16T06:42:46.521Z,1001.96
2018-03-16T06:43:27.096Z,1001.98
2018-03-16T06:44:07.659Z,1001.97
2018-03-16T06:44:48.468Z,1001.99
2018-03-16T06:45:28.939Z,1001.99
2018-03-16T06:46:09.562Z,1001.99
2018-03-16T06:46:50.311Z,1002.06
2018-03-16T06:47:30.889Z,1002.1
2018-03-16T06:48:11.456Z,1001.96
2018-03-16T06:48:52.874Z,1002.01
2018-03-16T06:49:33.464Z,1001.97
2018-03-16T06:50:14.160Z,1002.04
2018-03-16T06:50:54.916Z,1002.06
2018-03-16T06:51:35.560Z,1002.02
2018-03-16T06:52:17.101Z,1002.04
2018-03-16T06:52:57.779Z,1002.12
2018-03-16T06:53:38.411Z,1002.1
2018-03-16T06:54:19.111Z,1002.02
2018-03-16T06:54:59.721Z,1002.09
2018-03-16T06:55:40.298Z,1002.1
2018-03-16T06:56:20.859Z,1002.08
2018-03-16T06:57:01.441Z,1002.09
2018-03-16T06:57:42.024Z,1002.11
2018-03-16T06:58:22.760Z,1002.08
2018-03-16T06:59:03.412Z,1002.05
2018-03-16T06:59:44.023Z,1002.15
2018-03-16T07:00:24.841Z,1002.12
2018-03-16T07:01:05.465Z,1002.15
2018-03-16T07:01:46.202Z,1002.13
2018-03-16T07:02:26.832Z,1002.03
2018-03-16T07:03:07.409Z,1002.01
2018-03-16T07:03:48.208Z,1002.02
2018-03-16T07:04:28.766Z,1002.12
2018-03-16T07:05:09.461Z,1002.11
2018-03-16T07:05:50.105Z,1002.08
2018-03-16T07:06:30.635Z,1002.16
2018-03-16T07:07:11.230Z,1002.09
2018-03-16T07:07:51.792Z,1002.14
2018-03-16T07:08:32.478Z,1002.03
2018-03-16T07:09:13.010Z,1002.04
2018-03-16T07:09:53.588Z,1002.03
2018-03-16T07:10:34.134Z,1002.08
2018-03-16T07:11:14.726Z,1001.95
2018-03-16T07:11:55.286Z,1002.1
2018-03-16T07:12:35.840Z,1002.06
2018-03-16T07:13:16.401Z,1002.03
2018-03-16T07:13:56.988Z,1002.05
2018-03-16T07:14:37.555Z,1002.07
2018-03-16T07:15:18.123Z,1002.12
2018-03-16T07:15:58.680Z,1002
2018-03-16T07:16:39.246Z,1002.01
2018-03-16T07:17:19.797Z,1002.09
2018-03-16T07:18:00.404Z,1002.01
2018-03-16T07:18:40.896Z,1002.11
2018-03-16T07:19:21.447Z,1002.07
2018-03-16T07:20:02.042Z,1002.13
2018-03-16T07:20:42.587Z,1002.06
2018-03-16T07:21:23.176Z,1002.02
2018-03-16T07:22:03.760Z,1002.08
2018-03-16T07:22:44.302Z,1002.11
2018-03-16T07:23:24.895Z,1002.06
2018-03-16T07:24:05.467Z,1002.09
2018-03-16T07:24:46.057Z,1002.19
2018-03-16T07:25:26.611Z,1002.13
2018-03-16T07:26:07.197Z,1002.08
2018-03-16T07:26:47.801Z,1002.09
2018-03-16T07:27:28.360Z,1002.08
2018-03-16T07:28:08.921Z,1002.22
2018-03-16T07:28:49.480Z,1002.11
2018-03-16T07:32:50.705Z,1002.06
2018-03-16T07:33:31.245Z,1002.17
2018-03-16T07:34:11.820Z,1002.17
2018-03-16T07:34:52.378Z,1002.15
2018-03-16T07:35:32.927Z,1002.13
2018-03-16T07:36:13.553Z,1002.18
2018-03-16T07:36:54.196Z,1002.2
2018-03-16T07:37:34.761Z,1002.17
2018-03-16T07:38:16.028Z,1002.23
2018-03-16T07:38:56.627Z,1002.2
2018-03-16T07:39:37.211Z,1002.21
2018-03-16T07:40:17.759Z,1002.27
2018-03-16T07:40:58.296Z,1002.22
2018-03-16T07:41:38.866Z,1002.19
2018-03-16T07:42:19.396Z,1002.18
2018-03-16T07:42:59.921Z,1002.19
2018-03-16T07:43:40.511Z,1002.21
2018-03-16T07:44:21.089Z,1002.19
2018-03-16T07:45:01.636Z,1002.19
2018-03-16T07:45:42.258Z,1002.2
2018-03-16T07:46:22.818Z,1002.32
2018-03-16T07:47:03.378Z,1002.21
2018-03-16T07:47:43.941Z,1002.2
2018-03-16T07:48:24.500Z,1002.11
2018-03-16T07:49:05.080Z,1002.21
2018-03-16T07:49:45.627Z,1002.24
2018-03-16T07:50:26.224Z,1002.21
2018-03-16T07:51:06.773Z,1002.32
2018-03-16T07:51:47.298Z,1002.18
2018-03-16T07:52:27.850Z,1002.19
2018-03-16T07:53:08.402Z,1002.18
2018-03-16T07:53:48.997Z,1002.24
2018-03-16T07:54:29.511Z,1002.23
2018-03-16T07:55:10.120Z,1002.12
2018-03-16T07:55:50.668Z,1002.1
2018-03-16T07:56:31.228Z,1002.15
2018-03-16T07:57:11.778Z,1002.26
2018-03-16T07:57:52.355Z,1002.23
2018-03-16T07:58:32.935Z,1002.19
2018-03-16T07:59:13.485Z,1002.25
2018-03-16T07:59:54.032Z,1002.25
2018-03-16T08:00:34.611Z,1002.28
2018-03-16T08:01:15.851Z,1002.26
2018-03-16T08:01:56.442Z,1002.31
2018-03-16T08:02:36.984Z,1002.25
2018-03-16T08:03:17.523Z,1002.26
2018-03-16T08:03:58.060Z,1002.25
2018-03-16T08:04:38.670Z,1002.23
2018-03-16T08:05:19.195Z,1002.27
2018-03-16T08:05:59.738Z,1002.28
2018-03-16T08:06:40.294Z,1002.28
2018-03-16T08:07:20.875Z,1002.21
2018-03-16T08:08:01.360Z,1002.15
2018-03-16T08:08:41.913Z,1002.28
2018-03-16T08:09:22.487Z,1002.24
2018-03-16T08:10:03.031Z,1002.2
2018-03-16T08:10:44.235Z,1002.22
2018-03-16T08:11:25.039Z,1002.22
2018-03-16T08:12:05.645Z,1002.2
2018-03-16T08:12:46.290Z,1002.16
2018-03-16T08:13:26.812Z,1002.25
2018-03-16T08:14:07.357Z,1002.2
2018-03-16T08:14:47.899Z,1002.24
2018-03-16T08:15:28.466Z,1002.16
2018-03-16T08:16:09.133Z,1002.27